This is the latest recevied weather packets stored in our database for station/object N7BTW-13. If no packets are shown the sender has not sent any weather packets the latest 10 day(s).
| Time | Temp. | Humidity | Pressure | Rain* | Wind** | Luminosity | Snow |
|---|---|---|---|---|---|---|---|
| 1787527807 | 29.44° C | 45% | - | 0 mm | - | - | - |
| 1787527207 | 29.44° C | 46% | - | 0 mm | - | - | - |
| 1787526607 | 28.89° C | 46% | - | 0 mm | - | - | - |
| 1787526009 | 28.89° C | 45% | - | 0 mm | - | - | - |
| 1787525408 | 28.33° C | 45% | - | 0 mm | - | - | - |
| 1787524809 | 28.89° C | 45% | - | 0 mm | - | - | - |
| 1787524210 | 28.89° C | 44% | - | 0 mm | - | - | - |
| 1787523608 | 28.89° C | 45% | - | 0 mm | - | - | - |
| 1787523007 | 29.44° C | 44% | - | 0 mm | - | - | - |
| 1787522408 | 28.33° C | 46% | - | 0 mm | - | - | - |
| 1787521807 | 27.78° C | 47% | - | 0 mm | - | - | - |
| 1787521207 | 28.33° C | 46% | - | 0 mm | - | - | - |
| 1787520607 | 27.22° C | 48% | - | 0 mm | - | - | - |
| 1787520007 | 27.22° C | 49% | - | 0 mm | - | - | - |
| 1787519406 | 27.22° C | 49% | - | 0 mm | - | - | - |
| 1787518808 | 26.11° C | 51% | - | 0 mm | - | - | - |
| 1787518207 | 24.44° C | 56% | - | 0 mm | - | - | - |
| 1787517607 | 26.11° C | 51% | - | 0 mm | - | - | - |
| 1787517007 | 26.11° C | 53% | - | 0 mm | - | - | - |
| 1787516408 | 24.44° C | 56% | - | 0 mm | - | - | - |
| 1787515806 | 24.44° C | 56% | - | 0 mm | - | - | - |
| 1787515207 | 24.44° C | 55% | - | 0 mm | - | - | - |
| 1787514608 | 25° C | 54% | - | 0 mm | - | - | - |
| 1787514008 | 23.89° C | 57% | - | 0 mm | - | - | - |
| 1787513410 | 23.89° C | 56% | - | 0 mm | - | - | - |
* Rain latest hour (hover to see other rain measurements)
** Current wind speed in m/s (hover to see current wind gust speed)